sensor_id;sensor_type;location;lat;lon;timestamp;pressure;altitude;pressure_sealevel;temperature;humidity
56681;BME280;42558;52.388;13.390;2023-03-04T00:02:14;101400.91;;;0.37;100.00
56681;BME280;42558;52.388;13.390;2023-03-04T00:04:44;101412.94;;;0.41;100.00
56681;BME280;42558;52.388;13.390;2023-03-04T00:07:14;101419.58;;;0.40;100.00
56681;BME280;42558;52.388;13.390;2023-03-04T00:09:45;101418.41;;;0.32;100.00
56681;BME280;42558;52.388;13.390;2023-03-04T00:12:15;101418.06;;;0.22;100.00
56681;BME280;42558;52.388;13.390;2023-03-04T00:14:45;101419.36;;;0.28;100.00
56681;BME280;42558;52.388;13.390;2023-03-04T00:17:15;101416.06;;;0.25;100.00
56681;BME280;42558;52.388;13.390;2023-03-04T00:19:46;101413.27;;;0.20;100.00
56681;BME280;42558;52.388;13.390;2023-03-04T00:22:15;101413.55;;;0.11;100.00
56681;BME280;42558;52.388;13.390;2023-03-04T00:24:45;101405.47;;;0.12;100.00
56681;BME280;42558;52.388;13.390;2023-03-04T00:27:15;101401.87;;;0.14;100.00
56681;BME280;42558;52.388;13.390;2023-03-04T00:29:45;101394.96;;;0.20;100.00
56681;BME280;42558;52.388;13.390;2023-03-04T00:32:15;101387.92;;;0.26;100.00
56681;BME280;42558;52.388;13.390;2023-03-04T00:34:47;101387.08;;;0.32;100.00
56681;BME280;42558;52.388;13.390;2023-03-04T00:37:17;101376.58;;;0.35;100.00
56681;BME280;42558;52.388;13.390;2023-03-04T00:39:46;101371.64;;;0.39;100.00
56681;BME280;42558;52.388;13.390;2023-03-04T00:42:16;101374.69;;;0.44;100.00
56681;BME280;42558;52.388;13.390;2023-03-04T00:44:46;101375.13;;;0.48;100.00
56681;BME280;42558;52.388;13.390;2023-03-04T00:47:18;101378.35;;;0.52;100.00
56681;BME280;42558;52.388;13.390;2023-03-04T00:49:47;101382.80;;;0.57;100.00
56681;BME280;42558;52.388;13.390;2023-03-04T00:52:17;101380.86;;;0.62;100.00
56681;BME280;42558;52.388;13.390;2023-03-04T00:54:47;101377.83;;;0.68;100.00
56681;BME280;42558;52.388;13.390;2023-03-04T00:57:17;101376.15;;;0.75;100.00
56681;BME280;42558;52.388;13.390;2023-03-04T00:59:47;101369.10;;;0.87;100.00
56681;BME280;42558;52.388;13.390;2023-03-04T01:02:17;101364.73;;;0.94;100.00
56681;BME280;42558;52.388;13.390;2023-03-04T01:04:47;101362.01;;;1.03;100.00
56681;BME280;42558;52.388;13.390;2023-03-04T01:07:17;101365.71;;;1.13;100.00
56681;BME280;42558;52.388;13.390;2023-03-04T01:09:47;101362.42;;;1.19;100.00
56681;BME280;42558;52.388;13.390;2023-03-04T01:12:17;101361.60;;;1.22;100.00
56681;BME280;42558;52.388;13.390;2023-03-04T01:14:47;101362.08;;;1.24;100.00
56681;BME280;42558;52.388;13.390;2023-03-04T01:17:17;101362.61;;;1.25;100.00
56681;BME280;42558;52.388;13.390;2023-03-04T01:19:47;101362.45;;;1.25;100.00
56681;BME280;42558;52.388;13.390;2023-03-04T01:22:17;101357.73;;;1.24;100.00
56681;BME280;42558;52.388;13.390;2023-03-04T01:24:47;101355.08;;;1.26;100.00
56681;BME280;42558;52.388;13.390;2023-03-04T01:27:17;101354.69;;;1.26;100.00
56681;BME280;42558;52.388;13.390;2023-03-04T01:29:47;101352.77;;;1.25;100.00
56681;BME280;42558;52.388;13.390;2023-03-04T01:32:17;101350.97;;;1.29;100.00
56681;BME280;42558;52.388;13.390;2023-03-04T01:34:46;101348.26;;;1.31;100.00
56681;BME280;42558;52.388;13.390;2023-03-04T01:37:16;101340.08;;;1.30;100.00
56681;BME280;42558;52.388;13.390;2023-03-04T01:39:46;101335.80;;;1.31;100.00
56681;BME280;42558;52.388;13.390;2023-03-04T01:42:22;101329.44;;;1.32;100.00
56681;BME280;42558;52.388;13.390;2023-03-04T01:44:52;101325.33;;;1.33;100.00
56681;BME280;42558;52.388;13.390;2023-03-04T01:47:26;101327.13;;;1.34;100.00
56681;BME280;42558;52.388;13.390;2023-03-04T01:49:57;101327.08;;;1.35;100.00
56681;BME280;42558;52.388;13.390;2023-03-04T01:52:30;101330.30;;;1.38;100.00
56681;BME280;42558;52.388;13.390;2023-03-04T01:55:00;101325.09;;;1.40;100.00
56681;BME280;42558;52.388;13.390;2023-03-04T01:57:34;101328.08;;;1.41;100.00
56681;BME280;42558;52.388;13.390;2023-03-04T02:00:34;101327.17;;;1.41;100.00
56681;BME280;42558;52.388;13.390;2023-03-04T02:03:07;101318.27;;;1.43;100.00
56681;BME280;42558;52.388;13.390;2023-03-04T02:05:42;101312.98;;;1.47;100.00
56681;BME280;42558;52.388;13.390;2023-03-04T02:08:14;101311.89;;;1.48;100.00
56681;BME280;42558;52.388;13.390;2023-03-04T02:10:46;101310.64;;;1.51;100.00
56681;BME280;42558;52.388;13.390;2023-03-04T02:13:16;101308.56;;;1.54;100.00
56681;BME280;42558;52.388;13.390;2023-03-04T02:15:46;101305.42;;;1.56;100.00
56681;BME280;42558;52.388;13.390;2023-03-04T02:18:22;101304.66;;;1.58;100.00
56681;BME280;42558;52.388;13.390;2023-03-04T02:21:04;101305.70;;;1.61;100.00
56681;BME280;42558;52.388;13.390;2023-03-04T02:24:14;101299.50;;;1.62;100.00
56681;BME280;42558;52.388;13.390;2023-03-04T02:26:46;101299.89;;;1.62;100.00
56681;BME280;42558;52.388;13.390;2023-03-04T02:29:17;101297.81;;;1.66;100.00
56681;BME280;42558;52.388;13.390;2023-03-04T02:31:50;101290.27;;;1.67;100.00
56681;BME280;42558;52.388;13.390;2023-03-04T02:34:27;101283.46;;;1.69;100.00
56681;BME280;42558;52.388;13.390;2023-03-04T02:36:58;101282.44;;;1.69;100.00
56681;BME280;42558;52.388;13.390;2023-03-04T02:39:39;101276.77;;;1.70;100.00
56681;BME280;42558;52.388;13.390;2023-03-04T02:42:10;101269.61;;;1.73;100.00
56681;BME280;42558;52.388;13.390;2023-03-04T02:44:46;101264.98;;;1.76;100.00
56681;BME280;42558;52.388;13.390;2023-03-04T02:47:17;101262.77;;;1.80;100.00
56681;BME280;42558;52.388;13.390;2023-03-04T02:49:47;101263.88;;;1.81;100.00
56681;BME280;42558;52.388;13.390;2023-03-04T02:52:22;101261.53;;;1.83;100.00
56681;BME280;42558;52.388;13.390;2023-03-04T02:54:51;101258.73;;;1.82;100.00
56681;BME280;42558;52.388;13.390;2023-03-04T02:57:19;101254.95;;;1.83;100.00
56681;BME280;42558;52.388;13.390;2023-03-04T02:59:49;101248.08;;;1.81;100.00
56681;BME280;42558;52.388;13.390;2023-03-04T03:02:18;101247.70;;;1.80;100.00
56681;BME280;42558;52.388;13.390;2023-03-04T03:04:47;101247.65;;;1.82;100.00
56681;BME280;42558;52.388;13.390;2023-03-04T03:07:15;101250.81;;;1.83;100.00
56681;BME280;42558;52.388;13.390;2023-03-04T03:09:43;101251.31;;;1.83;100.00
56681;BME280;42558;52.388;13.390;2023-03-04T03:12:17;101250.32;;;1.83;100.00
56681;BME280;42558;52.388;13.390;2023-03-04T03:14:46;101245.30;;;1.87;100.00
56681;BME280;42558;52.388;13.390;2023-03-04T03:17:15;101245.44;;;1.93;100.00
56681;BME280;42558;52.388;13.390;2023-03-04T03:19:43;101243.66;;;1.95;100.00
56681;BME280;42558;52.388;13.390;2023-03-04T03:22:12;101247.34;;;1.96;100.00
56681;BME280;42558;52.388;13.390;2023-03-04T03:24:40;101244.80;;;1.97;100.00
56681;BME280;42558;52.388;13.390;2023-03-04T03:27:08;101243.95;;;1.97;100.00
56681;BME280;42558;52.388;13.390;2023-03-04T03:29:37;101239.86;;;1.99;100.00
56681;BME280;42558;52.388;13.390;2023-03-04T03:32:05;101238.52;;;1.99;100.00
56681;BME280;42558;52.388;13.390;2023-03-04T03:34:34;101237.70;;;2.03;100.00
56681;BME280;42558;52.388;13.390;2023-03-04T03:37:02;101236.25;;;2.05;100.00
56681;BME280;42558;52.388;13.390;2023-03-04T03:39:31;101235.60;;;2.06;100.00
56681;BME280;42558;52.388;13.390;2023-03-04T03:41:59;101236.09;;;2.08;100.00
56681;BME280;42558;52.388;13.390;2023-03-04T03:44:27;101230.67;;;2.14;100.00
56681;BME280;42558;52.388;13.390;2023-03-04T03:46:56;101230.89;;;2.15;100.00
56681;BME280;42558;52.388;13.390;2023-03-04T03:49:25;101230.95;;;2.16;100.00
56681;BME280;42558;52.388;13.390;2023-03-04T03:51:53;101226.51;;;2.14;100.00
56681;BME280;42558;52.388;13.390;2023-03-04T03:54:21;101221.42;;;2.13;100.00
56681;BME280;42558;52.388;13.390;2023-03-04T03:56:49;101217.55;;;2.15;100.00
56681;BME280;42558;52.388;13.390;2023-03-04T03:59:18;101211.19;;;2.16;100.00
56681;BME280;42558;52.388;13.390;2023-03-04T04:01:46;101210.17;;;2.16;100.00
56681;BME280;42558;52.388;13.390;2023-03-04T04:04:15;101209.07;;;2.15;100.00
56681;BME280;42558;52.388;13.390;2023-03-04T04:06:43;101201.36;;;2.17;100.00
56681;BME280;42558;52.388;13.390;2023-03-04T04:09:11;101201.94;;;2.18;100.00
56681;BME280;42558;52.388;13.390;2023-03-04T04:11:40;101192.48;;;2.16;100.00
56681;BME280;42558;52.388;13.390;2023-03-04T04:14:12;101194.98;;;2.15;100.00
56681;BME280;42558;52.388;13.390;2023-03-04T04:16:42;101196.95;;;2.15;100.00
56681;BME280;42558;52.388;13.390;2023-03-04T04:19:18;101195.27;;;2.17;100.00
56681;BME280;42558;52.388;13.390;2023-03-04T04:21:48;101193.42;;;2.18;100.00
56681;BME280;42558;52.388;13.390;2023-03-04T04:24:18;101187.90;;;2.18;100.00
56681;BME280;42558;52.388;13.390;2023-03-04T04:26:48;101189.93;;;2.21;100.00
56681;BME280;42558;52.388;13.390;2023-03-04T04:29:18;101186.90;;;2.22;100.00
56681;BME280;42558;52.388;13.390;2023-03-04T04:31:48;101189.89;;;2.23;100.00
56681;BME280;42558;52.388;13.390;2023-03-04T04:34:18;101192.54;;;2.27;100.00
56681;BME280;42558;52.388;13.390;2023-03-04T04:36:48;101190.61;;;2.27;100.00
56681;BME280;42558;52.388;13.390;2023-03-04T04:39:18;101190.55;;;2.29;100.00
56681;BME280;42558;52.388;13.390;2023-03-04T04:41:48;101183.27;;;2.29;100.00
56681;BME280;42558;52.388;13.390;2023-03-04T04:44:18;101179.59;;;2.32;100.00
56681;BME280;42558;52.388;13.390;2023-03-04T04:46:47;101179.80;;;2.32;100.00
56681;BME280;42558;52.388;13.390;2023-03-04T04:49:17;101177.44;;;2.34;100.00
56681;BME280;42558;52.388;13.390;2023-03-04T04:51:47;101172.70;;;2.35;100.00
56681;BME280;42558;52.388;13.390;2023-03-04T04:54:17;101166.42;;;2.38;100.00
56681;BME280;42558;52.388;13.390;2023-03-04T04:56:47;101170.65;;;2.40;100.00
56681;BME280;42558;52.388;13.390;2023-03-04T04:59:16;101168.64;;;2.44;100.00
56681;BME280;42558;52.388;13.390;2023-03-04T05:01:46;101160.00;;;2.48;100.00
56681;BME280;42558;52.388;13.390;2023-03-04T05:04:16;101161.02;;;2.52;100.00
56681;BME280;42558;52.388;13.390;2023-03-04T05:06:46;101166.87;;;2.54;100.00
56681;BME280;42558;52.388;13.390;2023-03-04T05:09:16;101165.26;;;2.56;100.00
56681;BME280;42558;52.388;13.390;2023-03-04T05:11:46;101164.84;;;2.58;100.00
56681;BME280;42558;52.388;13.390;2023-03-04T05:14:15;101159.31;;;2.61;100.00
56681;BME280;42558;52.388;13.390;2023-03-04T05:16:45;101161.41;;;2.62;100.00
56681;BME280;42558;52.388;13.390;2023-03-04T05:19:15;101163.73;;;2.63;100.00
56681;BME280;42558;52.388;13.390;2023-03-04T05:21:45;101163.80;;;2.65;100.00
56681;BME280;42558;52.388;13.390;2023-03-04T05:24:15;101163.05;;;2.67;100.00
56681;BME280;42558;52.388;13.390;2023-03-04T05:26:45;101168.71;;;2.72;100.00
56681;BME280;42558;52.388;13.390;2023-03-04T05:29:15;101165.20;;;2.78;100.00
56681;BME280;42558;52.388;13.390;2023-03-04T05:31:45;101163.17;;;2.82;100.00
56681;BME280;42558;52.388;13.390;2023-03-04T05:34:15;101160.67;;;2.85;100.00
56681;BME280;42558;52.388;13.390;2023-03-04T05:36:45;101166.14;;;2.90;100.00
56681;BME280;42558;52.388;13.390;2023-03-04T05:39:15;101165.70;;;2.92;100.00
56681;BME280;42558;52.388;13.390;2023-03-04T05:41:45;101160.45;;;2.91;100.00
56681;BME280;42558;52.388;13.390;2023-03-04T05:44:15;101157.92;;;2.92;100.00
56681;BME280;42558;52.388;13.390;2023-03-04T05:46:45;101158.81;;;2.93;100.00
56681;BME280;42558;52.388;13.390;2023-03-04T05:49:15;101160.48;;;2.88;100.00
56681;BME280;42558;52.388;13.390;2023-03-04T05:51:45;101161.56;;;2.88;100.00
56681;BME280;42558;52.388;13.390;2023-03-04T05:54:15;101154.36;;;2.94;100.00
56681;BME280;42558;52.388;13.390;2023-03-04T05:56:44;101157.41;;;2.95;100.00
56681;BME280;42558;52.388;13.390;2023-03-04T05:59:14;101156.74;;;2.96;100.00
56681;BME280;42558;52.388;13.390;2023-03-04T06:01:49;101158.52;;;2.97;100.00
56681;BME280;42558;52.388;13.390;2023-03-04T06:04:19;101157.32;;;2.97;100.00
56681;BME280;42558;52.388;13.390;2023-03-04T06:06:48;101160.45;;;3.01;100.00
56681;BME280;42558;52.388;13.390;2023-03-04T06:09:18;101154.61;;;3.06;100.00
56681;BME280;42558;52.388;13.390;2023-03-04T06:11:49;101154.35;;;3.04;100.00
56681;BME280;42558;52.388;13.390;2023-03-04T06:14:19;101152.02;;;3.03;100.00
56681;BME280;42558;52.388;13.390;2023-03-04T06:16:49;101148.45;;;3.04;100.00
56681;BME280;42558;52.388;13.390;2023-03-04T06:19:19;101153.89;;;3.06;100.00
56681;BME280;42558;52.388;13.390;2023-03-04T06:21:49;101154.96;;;3.06;100.00
56681;BME280;42558;52.388;13.390;2023-03-04T06:24:19;101157.54;;;3.06;100.00
56681;BME280;42558;52.388;13.390;2023-03-04T06:26:49;101159.10;;;3.06;100.00
56681;BME280;42558;52.388;13.390;2023-03-04T06:29:19;101158.16;;;3.04;100.00
56681;BME280;42558;52.388;13.390;2023-03-04T06:31:49;101154.77;;;3.02;100.00
56681;BME280;42558;52.388;13.390;2023-03-04T06:34:19;101161.38;;;3.02;100.00
56681;BME280;42558;52.388;13.390;2023-03-04T06:36:49;101156.64;;;3.05;100.00
56681;BME280;42558;52.388;13.390;2023-03-04T06:39:19;101162.45;;;3.07;100.00
56681;BME280;42558;52.388;13.390;2023-03-04T06:41:49;101160.98;;;3.05;100.00
56681;BME280;42558;52.388;13.390;2023-03-04T06:44:19;101160.96;;;3.08;100.00
56681;BME280;42558;52.388;13.390;2023-03-04T06:46:49;101163.64;;;3.09;100.00
56681;BME280;42558;52.388;13.390;2023-03-04T06:49:19;101163.17;;;3.10;100.00
56681;BME280;42558;52.388;13.390;2023-03-04T06:51:46;101170.39;;;3.15;100.00
56681;BME280;42558;52.388;13.390;2023-03-04T06:54:13;101168.56;;;3.17;100.00
56681;BME280;42558;52.388;13.390;2023-03-04T06:56:43;101165.98;;;3.14;100.00
56681;BME280;42558;52.388;13.390;2023-03-04T06:59:13;101160.64;;;3.15;100.00
56681;BME280;42558;52.388;13.390;2023-03-04T07:01:43;101158.06;;;3.16;100.00
56681;BME280;42558;52.388;13.390;2023-03-04T07:04:13;101163.12;;;3.16;100.00
56681;BME280;42558;52.388;13.390;2023-03-04T07:06:43;101159.87;;;3.17;100.00
56681;BME280;42558;52.388;13.390;2023-03-04T07:09:13;101159.24;;;3.22;100.00
56681;BME280;42558;52.388;13.390;2023-03-04T07:11:43;101165.64;;;3.25;100.00
56681;BME280;42558;52.388;13.390;2023-03-04T07:14:13;101156.55;;;3.23;100.00
56681;BME280;42558;52.388;13.390;2023-03-04T07:16:43;101159.88;;;3.24;100.00
56681;BME280;42558;52.388;13.390;2023-03-04T07:19:11;101157.05;;;3.27;100.00
56681;BME280;42558;52.388;13.390;2023-03-04T07:21:40;101158.41;;;3.26;100.00
56681;BME280;42558;52.388;13.390;2023-03-04T07:24:08;101157.92;;;3.31;100.00
56681;BME280;42558;52.388;13.390;2023-03-04T07:26:37;101161.01;;;3.33;100.00
56681;BME280;42558;52.388;13.390;2023-03-04T07:29:05;101158.89;;;3.36;100.00
56681;BME280;42558;52.388;13.390;2023-03-04T07:31:34;101157.77;;;3.34;100.00
56681;BME280;42558;52.388;13.390;2023-03-04T07:34:06;101164.97;;;3.36;100.00
56681;BME280;42558;52.388;13.390;2023-03-04T07:36:37;101164.51;;;3.37;100.00
56681;BME280;42558;52.388;13.390;2023-03-04T07:39:07;101166.33;;;3.35;100.00
56681;BME280;42558;52.388;13.390;2023-03-04T07:41:38;101165.13;;;3.32;100.00
56681;BME280;42558;52.388;13.390;2023-03-04T07:44:10;101164.69;;;3.34;100.00
56681;BME280;42558;52.388;13.390;2023-03-04T07:46:40;101164.80;;;3.43;100.00
56681;BME280;42558;52.388;13.390;2023-03-04T07:49:11;101161.66;;;3.54;100.00
56681;BME280;42558;52.388;13.390;2023-03-04T07:51:41;101163.69;;;3.63;100.00
56681;BME280;42558;52.388;13.390;2023-03-04T07:54:10;101164.79;;;3.61;100.00
56681;BME280;42558;52.388;13.390;2023-03-04T07:56:38;101164.69;;;3.55;100.00
56681;BME280;42558;52.388;13.390;2023-03-04T07:59:06;101164.41;;;3.42;100.00
56681;BME280;42558;52.388;13.390;2023-03-04T08:01:37;101163.33;;;3.38;100.00
56681;BME280;42558;52.388;13.390;2023-03-04T08:04:07;101160.56;;;3.38;100.00
56681;BME280;42558;52.388;13.390;2023-03-04T08:06:35;101162.75;;;3.33;100.00
56681;BME280;42558;52.388;13.390;2023-03-04T08:09:06;101160.84;;;3.37;100.00
56681;BME280;42558;52.388;13.390;2023-03-04T08:11:36;101160.20;;;3.38;100.00
56681;BME280;42558;52.388;13.390;2023-03-04T08:14:10;101160.78;;;3.39;100.00
56681;BME280;42558;52.388;13.390;2023-03-04T08:16:40;101159.34;;;3.41;100.00
56681;BME280;42558;52.388;13.390;2023-03-04T08:19:11;101166.50;;;3.46;100.00
56681;BME280;42558;52.388;13.390;2023-03-04T08:21:41;101160.52;;;3.51;100.00
56681;BME280;42558;52.388;13.390;2023-03-04T08:24:11;101161.64;;;3.61;100.00
56681;BME280;42558;52.388;13.390;2023-03-04T08:26:44;101160.96;;;3.61;100.00
56681;BME280;42558;52.388;13.390;2023-03-04T08:29:17;101160.58;;;3.67;100.00
56681;BME280;42558;52.388;13.390;2023-03-04T08:31:50;101159.12;;;3.77;100.00
56681;BME280;42558;52.388;13.390;2023-03-04T08:34:24;101157.55;;;3.77;100.00
56681;BME280;42558;52.388;13.390;2023-03-04T08:36:54;101157.56;;;3.81;100.00
56681;BME280;42558;52.388;13.390;2023-03-04T08:39:24;101158.11;;;3.85;100.00
56681;BME280;42558;52.388;13.390;2023-03-04T08:41:55;101157.29;;;3.86;100.00
56681;BME280;42558;52.388;13.390;2023-03-04T08:44:25;101155.42;;;3.91;100.00
56681;BME280;42558;52.388;13.390;2023-03-04T08:46:55;101149.94;;;3.93;100.00
56681;BME280;42558;52.388;13.390;2023-03-04T08:49:25;101151.79;;;3.95;100.00
56681;BME280;42558;52.388;13.390;2023-03-04T08:51:55;101152.77;;;3.97;100.00
56681;BME280;42558;52.388;13.390;2023-03-04T08:54:25;101146.33;;;4.01;100.00
56681;BME280;42558;52.388;13.390;2023-03-04T08:56:55;101146.45;;;4.03;100.00
56681;BME280;42558;52.388;13.390;2023-03-04T08:59:25;101146.53;;;4.05;100.00
56681;BME280;42558;52.388;13.390;2023-03-04T09:01:54;101150.30;;;4.04;100.00
56681;BME280;42558;52.388;13.390;2023-03-04T09:04:22;101146.05;;;4.02;100.00
56681;BME280;42558;52.388;13.390;2023-03-04T09:06:52;101142.83;;;4.04;100.00
56681;BME280;42558;52.388;13.390;2023-03-04T09:09:22;101142.92;;;4.07;100.00
56681;BME280;42558;52.388;13.390;2023-03-04T09:11:49;101145.05;;;3.99;100.00
56681;BME280;42558;52.388;13.390;2023-03-04T09:14:19;101143.03;;;4.01;100.00
56681;BME280;42558;52.388;13.390;2023-03-04T09:16:49;101140.56;;;3.96;100.00
56681;BME280;42558;52.388;13.390;2023-03-04T09:19:19;101136.30;;;3.98;100.00
56681;BME280;42558;52.388;13.390;2023-03-04T09:21:49;101132.73;;;3.96;100.00
56681;BME280;42558;52.388;13.390;2023-03-04T09:24:19;101132.90;;;4.04;100.00
56681;BME280;42558;52.388;13.390;2023-03-04T09:26:50;101135.03;;;4.17;100.00
56681;BME280;42558;52.388;13.390;2023-03-04T09:29:20;101134.72;;;4.25;100.00
56681;BME280;42558;52.388;13.390;2023-03-04T09:31:50;101132.67;;;4.37;100.00
56681;BME280;42558;52.388;13.390;2023-03-04T09:34:20;101140.85;;;4.46;100.00
56681;BME280;42558;52.388;13.390;2023-03-04T09:36:49;101142.27;;;4.58;100.00
56681;BME280;42558;52.388;13.390;2023-03-04T09:39:19;101133.42;;;4.62;100.00
56681;BME280;42558;52.388;13.390;2023-03-04T09:41:53;101135.29;;;4.65;100.00
56681;BME280;42558;52.388;13.390;2023-03-04T09:44:34;101130.58;;;4.73;100.00
56681;BME280;42558;52.388;13.390;2023-03-04T09:47:15;101130.36;;;4.69;99.71
56681;BME280;42558;52.388;13.390;2023-03-04T09:50:08;101132.14;;;4.74;99.53
56681;BME280;42558;52.388;13.390;2023-03-04T09:55:40;101132.45;;;4.84;98.69
56681;BME280;42558;52.388;13.390;2023-03-04T10:01:20;101139.20;;;4.91;97.48
56681;BME280;42558;52.388;13.390;2023-03-04T10:04:02;101137.02;;;4.85;95.63
56681;BME280;42558;52.388;13.390;2023-03-04T10:06:36;101135.44;;;4.85;95.96
56681;BME280;42558;52.388;13.390;2023-03-04T10:09:16;101133.94;;;4.95;95.45
56681;BME280;42558;52.388;13.390;2023-03-04T10:12:00;101134.22;;;4.97;92.93
56681;BME280;42558;52.388;13.390;2023-03-04T10:14:43;101132.45;;;5.01;91.43
56681;BME280;42558;52.388;13.390;2023-03-04T10:17:39;101129.69;;;5.14;90.50
56681;BME280;42558;52.388;13.390;2023-03-04T10:20:30;101131.68;;;5.20;85.60
56681;BME280;42558;52.388;13.390;2023-03-04T10:23:10;101137.05;;;5.24;82.54
56681;BME280;42558;52.388;13.390;2023-03-04T10:25:45;101134.81;;;5.24;82.22
56681;BME280;42558;52.388;13.390;2023-03-04T10:28:19;101138.92;;;5.31;81.04
56681;BME280;42558;52.388;13.390;2023-03-04T10:31:08;101128.98;;;5.35;79.32
56681;BME280;42558;52.388;13.390;2023-03-04T10:33:40;101132.81;;;5.27;76.90
56681;BME280;42558;52.388;13.390;2023-03-04T10:39:05;101125.42;;;5.38;75.94
56681;BME280;42558;52.388;13.390;2023-03-04T10:41:41;101128.02;;;5.42;74.90
56681;BME280;42558;52.388;13.390;2023-03-04T10:44:17;101127.48;;;5.41;75.00
56681;BME280;42558;52.388;13.390;2023-03-04T10:46:48;101131.67;;;5.41;74.50
56681;BME280;42558;52.388;13.390;2023-03-04T10:49:19;101128.34;;;5.45;73.47
56681;BME280;42558;52.388;13.390;2023-03-04T10:51:53;101128.15;;;5.45;72.63
56681;BME280;42558;52.388;13.390;2023-03-04T10:54:30;101128.48;;;5.70;73.17
56681;BME280;42558;52.388;13.390;2023-03-04T10:57:05;101123.61;;;5.76;72.62
56681;BME280;42558;52.388;13.390;2023-03-04T10:59:57;101125.11;;;5.87;72.29
56681;BME280;42558;52.388;13.390;2023-03-04T11:02:35;101125.56;;;5.81;72.79
56681;BME280;42558;52.388;13.390;2023-03-04T11:07:46;101128.16;;;5.89;71.65
56681;BME280;42558;52.388;13.390;2023-03-04T11:10:28;101120.06;;;5.96;72.11
56681;BME280;42558;52.388;13.390;2023-03-04T11:15:53;101116.82;;;6.16;74.19
56681;BME280;42558;52.388;13.390;2023-03-04T11:19:02;101117.20;;;6.17;75.24
56681;BME280;42558;52.388;13.390;2023-03-04T11:21:38;101119.13;;;6.18;75.28
56681;BME280;42558;52.388;13.390;2023-03-04T11:24:13;101123.06;;;6.15;74.40
56681;BME280;42558;52.388;13.390;2023-03-04T11:27:19;101127.70;;;6.00;75.61
56681;BME280;42558;52.388;13.390;2023-03-04T11:32:45;101125.92;;;5.77;74.47
56681;BME280;42558;52.388;13.390;2023-03-04T11:35:44;101131.25;;;5.80;74.81
56681;BME280;42558;52.388;13.390;2023-03-04T11:38:35;101135.48;;;5.89;75.32
56681;BME280;42558;52.388;13.390;2023-03-04T11:41:13;101135.00;;;5.68;75.86
56681;BME280;42558;52.388;13.390;2023-03-04T11:43:46;101138.44;;;5.71;76.63
56681;BME280;42558;52.388;13.390;2023-03-04T12:00:33;101132.31;;;5.44;74.64
56681;BME280;42558;52.388;13.390;2023-03-04T12:12:40;101137.49;;;5.60;71.94
56681;BME280;42558;52.388;13.390;2023-03-04T12:18:16;101132.61;;;5.65;70.87
56681;BME280;42558;52.388;13.390;2023-03-04T12:21:35;101130.59;;;5.62;70.60
56681;BME280;42558;52.388;13.390;2023-03-04T12:41:49;101123.73;;;5.35;70.54
56681;BME280;42558;52.388;13.390;2023-03-04T12:44:30;101125.10;;;5.38;70.85
56681;BME280;42558;52.388;13.390;2023-03-04T12:52:58;101123.75;;;5.35;70.51
56681;BME280;42558;52.388;13.390;2023-03-04T12:55:38;101129.42;;;5.25;70.37
56681;BME280;42558;52.388;13.390;2023-03-04T12:58:22;101124.77;;;5.26;70.47
56681;BME280;42558;52.388;13.390;2023-03-04T13:01:16;101125.20;;;5.28;70.58
56681;BME280;42558;52.388;13.390;2023-03-04T13:07:15;101122.15;;;5.30;70.49
56681;BME280;42558;52.388;13.390;2023-03-04T13:09:56;101119.77;;;5.44;70.46
56681;BME280;42558;52.388;13.390;2023-03-04T13:12:27;101117.33;;;5.44;70.07
56681;BME280;42558;52.388;13.390;2023-03-04T13:17:44;101117.60;;;5.51;69.73
56681;BME280;42558;52.388;13.390;2023-03-04T13:26:18;101120.30;;;5.41;69.35
56681;BME280;42558;52.388;13.390;2023-03-04T13:32:11;101123.83;;;5.16;69.49
56681;BME280;42558;52.388;13.390;2023-03-04T13:34:46;101127.46;;;5.19;70.38
56681;BME280;42558;52.388;13.390;2023-03-04T13:37:33;101128.26;;;5.17;69.70
56681;BME280;42558;52.388;13.390;2023-03-04T13:42:50;101127.62;;;5.19;69.81
56681;BME280;42558;52.388;13.390;2023-03-04T13:48:22;101121.73;;;5.25;69.57
56681;BME280;42558;52.388;13.390;2023-03-04T13:50:54;101121.02;;;5.15;69.47
56681;BME280;42558;52.388;13.390;2023-03-04T13:53:42;101123.63;;;5.11;69.83
56681;BME280;42558;52.388;13.390;2023-03-04T13:59:21;101123.80;;;5.03;71.17
56681;BME280;42558;52.388;13.390;2023-03-04T14:02:09;101124.60;;;5.01;71.64
56681;BME280;42558;52.388;13.390;2023-03-04T14:04:57;101125.98;;;5.04;71.56
56681;BME280;42558;52.388;13.390;2023-03-04T14:07:32;101123.04;;;5.05;70.81
56681;BME280;42558;52.388;13.390;2023-03-04T14:12:51;101122.56;;;4.98;69.45
56681;BME280;42558;52.388;13.390;2023-03-04T14:15:29;101122.90;;;4.98;69.59
56681;BME280;42558;52.388;13.390;2023-03-04T14:18:03;101119.68;;;5.00;69.27
56681;BME280;42558;52.388;13.390;2023-03-04T14:20:38;101121.64;;;4.92;69.01
56681;BME280;42558;52.388;13.390;2023-03-04T14:26:17;101115.60;;;4.86;68.86
56681;BME280;42558;52.388;13.390;2023-03-04T14:28:50;101114.56;;;4.94;68.97
56681;BME280;42558;52.388;13.390;2023-03-04T14:31:24;101116.32;;;4.94;68.43
56681;BME280;42558;52.388;13.390;2023-03-04T14:34:00;101116.57;;;4.92;68.36
56681;BME280;42558;52.388;13.390;2023-03-04T14:36:34;101115.81;;;4.90;68.82
56681;BME280;42558;52.388;13.390;2023-03-04T14:39:05;101117.46;;;4.92;69.45
56681;BME280;42558;52.388;13.390;2023-03-04T14:41:40;101118.72;;;4.85;69.05
56681;BME280;42558;52.388;13.390;2023-03-04T14:44:28;101116.39;;;4.88;69.77
56681;BME280;42558;52.388;13.390;2023-03-04T14:49:45;101113.90;;;4.82;68.85
56681;BME280;42558;52.388;13.390;2023-03-04T14:52:50;101110.52;;;4.85;68.56